createdAt,value
2019-01-28T00:01:43.925Z,75.70
2019-01-28T00:04:16.206Z,75.80
2019-01-28T00:06:49.505Z,75.70
2019-01-28T00:09:22.124Z,75.70
2019-01-28T00:11:54.385Z,74.70
2019-01-28T00:14:27.045Z,74.90
2019-01-28T00:16:59.625Z,74.50
2019-01-28T00:19:31.905Z,74.20
2019-01-28T00:22:04.785Z,73.60
2019-01-28T00:24:37.325Z,72.90
2019-01-28T00:27:09.666Z,72.70
2019-01-28T00:29:42.124Z,72.30
2019-01-28T00:32:14.329Z,72.10
2019-01-28T00:34:47.165Z,71.80
2019-01-28T00:37:19.484Z,71.00
2019-01-28T00:39:52.965Z,71.70
2019-01-28T00:42:25.886Z,71.70
2019-01-28T00:44:58.224Z,72.00
2019-01-28T00:47:30.606Z,71.90
2019-01-28T00:50:03.385Z,71.30
2019-01-28T00:52:35.904Z,71.20
2019-01-28T00:55:09.445Z,70.70
2019-01-28T00:57:42.765Z,71.10
2019-01-28T01:00:18.384Z,71.20
2019-01-28T01:02:50.825Z,72.70
2019-01-28T01:05:23.446Z,73.20
2019-01-28T01:07:56.964Z,72.90
2019-01-28T01:10:28.845Z,73.30
2019-01-28T01:13:01.329Z,74.10
2019-01-28T01:15:33.347Z,75.20
2019-01-28T01:18:06.824Z,75.60
2019-01-28T01:20:39.931Z,75.10
2019-01-28T01:23:12.316Z,75.20
2019-01-28T01:25:44.666Z,75.40
2019-01-28T01:28:17.385Z,76.00
2019-01-28T01:30:49.406Z,75.60
2019-01-28T01:33:22.145Z,75.60
2019-01-28T01:35:54.826Z,75.30
2019-01-28T01:38:27.446Z,74.80
2019-01-28T01:41:00.705Z,74.80
2019-01-28T01:43:33.226Z,75.20
2019-01-28T01:46:06.784Z,75.50
2019-01-28T01:48:41.325Z,75.70
2019-01-28T01:51:13.964Z,75.50
2019-01-28T01:53:47.045Z,74.90
2019-01-28T01:56:19.385Z,74.90
2019-01-28T01:58:51.444Z,74.80
2019-01-28T02:01:24.265Z,75.00
2019-01-28T02:03:57.325Z,75.20
2019-01-28T02:06:29.745Z,74.60
2019-01-28T02:09:02.586Z,75.00
2019-01-28T02:11:35.046Z,74.30
2019-01-28T02:14:08.404Z,74.30
2019-01-28T02:16:40.805Z,74.50
2019-01-28T02:19:13.086Z,75.20
2019-01-28T02:21:46.125Z,74.80
2019-01-28T02:24:18.468Z,75.20
2019-01-28T02:26:53.526Z,75.70
2019-01-28T02:29:26.445Z,75.80
2019-01-28T02:31:58.610Z,76.10
2019-01-28T02:34:31.585Z,75.90
2019-01-28T02:37:04.166Z,76.20
2019-01-28T02:39:37.266Z,75.70
2019-01-28T02:42:09.445Z,75.60
2019-01-28T02:44:42.504Z,75.00
2019-01-28T02:47:15.225Z,72.60
2019-01-28T02:49:48.364Z,71.60
2019-01-28T02:52:20.828Z,70.40
2019-01-28T02:54:53.386Z,70.00
2019-01-28T02:57:25.805Z,68.70
2019-01-28T02:59:57.529Z,68.10
2019-01-28T03:02:30.425Z,67.90
2019-01-28T03:05:03.806Z,68.10
2019-01-28T03:07:36.848Z,67.80
2019-01-28T03:10:12.488Z,67.60
2019-01-28T03:12:45.427Z,66.60
2019-01-28T03:15:18.910Z,66.90
2019-01-28T03:17:51.785Z,66.40
2019-01-28T03:20:24.049Z,66.30
2019-01-28T03:22:56.205Z,66.40
2019-01-28T03:25:29.692Z,66.00
2019-01-28T03:28:02.625Z,66.10
2019-01-28T03:30:34.926Z,65.30
2019-01-28T03:33:07.652Z,64.30
2019-01-28T03:35:40.644Z,65.20
2019-01-28T03:38:13.206Z,65.30
2019-01-28T03:40:45.504Z,64.30
2019-01-28T03:43:18.705Z,63.40
2019-01-28T03:45:51.446Z,63.80
2019-01-28T03:48:24.246Z,64.10
2019-01-28T03:50:56.386Z,64.20
2019-01-28T03:53:29.192Z,64.80
2019-01-28T03:56:02.006Z,63.40
2019-01-28T03:58:34.926Z,63.00
2019-01-28T04:01:07.425Z,63.70
2019-01-28T04:03:40.567Z,63.20
2019-01-28T04:06:13.606Z,63.30
2019-01-28T04:08:46.165Z,63.10
2019-01-28T04:11:18.067Z,63.20
2019-01-28T04:13:51.386Z,62.50
2019-01-28T04:16:24.146Z,62.90
2019-01-28T04:18:56.766Z,62.70
2019-01-28T04:21:29.266Z,62.10
2019-01-28T04:24:02.586Z,62.40
2019-01-28T04:26:35.505Z,62.30
2019-01-28T04:29:08.827Z,62.30
2019-01-28T04:31:42.166Z,61.90
2019-01-28T04:34:14.564Z,61.80
2019-01-28T04:36:47.347Z,62.20
2019-01-28T04:39:20.906Z,62.70
2019-01-28T04:41:54.032Z,62.50
2019-01-28T04:44:26.585Z,62.70
2019-01-28T04:46:59.606Z,63.00
2019-01-28T04:49:32.704Z,62.90
2019-01-28T04:52:05.104Z,63.40
2019-01-28T04:54:37.924Z,62.30
2019-01-28T04:57:10.446Z,62.60
2019-01-28T04:59:43.068Z,63.10
2019-01-28T05:02:15.665Z,62.80
2019-01-28T05:04:49.267Z,63.00
2019-01-28T05:07:22.106Z,62.60
2019-01-28T05:09:54.224Z,63.50
2019-01-28T05:12:27.325Z,62.50
2019-01-28T05:15:00.326Z,63.10
2019-01-28T05:17:32.404Z,62.80
2019-01-28T05:20:04.427Z,62.70
2019-01-28T05:22:38.199Z,62.80
2019-01-28T05:25:11.745Z,62.00
2019-01-28T05:27:45.029Z,62.10
2019-01-28T05:30:24.946Z,62.50
2019-01-28T05:32:57.024Z,62.30
2019-01-28T05:35:30.624Z,62.70
2019-01-28T05:38:03.244Z,62.70
2019-01-28T05:40:35.244Z,62.30
2019-01-28T05:43:07.785Z,62.40
2019-01-28T05:45:40.744Z,61.80
2019-01-28T05:48:13.104Z,62.60
2019-01-28T05:50:45.404Z,62.50
2019-01-28T05:53:18.244Z,62.40
2019-01-28T05:55:51.604Z,62.50
2019-01-28T05:58:23.985Z,62.00
2019-01-28T06:00:56.364Z,61.30
2019-01-28T06:03:29.285Z,61.20
2019-01-28T06:06:01.705Z,61.00
2019-01-28T06:08:34.544Z,61.10
2019-01-28T06:11:07.095Z,61.50
2019-01-28T06:13:39.584Z,61.00
2019-01-28T06:16:12.345Z,60.10
2019-01-28T06:18:44.769Z,59.90
2019-01-28T06:21:17.844Z,59.00
2019-01-28T06:23:49.906Z,59.10
2019-01-28T06:26:22.565Z,60.00
2019-01-28T06:28:55.465Z,59.70
2019-01-28T06:31:28.145Z,59.00
2019-01-28T06:34:00.324Z,59.10
2019-01-28T06:36:33.743Z,59.10
2019-01-28T06:39:06.945Z,59.20
2019-01-28T06:41:39.766Z,58.80
2019-01-28T06:44:11.424Z,59.10
2019-01-28T06:46:44.405Z,59.10
2019-01-28T06:49:17.225Z,58.80
2019-01-28T06:51:49.584Z,59.10
2019-01-28T06:54:21.627Z,60.20
2019-01-28T06:56:54.946Z,59.50
2019-01-28T06:59:27.204Z,60.00
2019-01-28T07:01:59.985Z,60.70
2019-01-28T07:04:32.446Z,61.00
2019-01-28T07:07:04.805Z,60.70
2019-01-28T07:09:37.184Z,60.70
2019-01-28T07:12:10.425Z,60.90
2019-01-28T07:14:43.765Z,60.20
2019-01-28T07:17:16.149Z,61.00
2019-01-28T07:19:48.785Z,61.10
2019-01-28T07:22:21.945Z,61.00
2019-01-28T07:24:54.605Z,61.30
2019-01-28T07:27:26.904Z,61.40
2019-01-28T07:29:59.804Z,61.20
2019-01-28T07:32:32.648Z,62.20
2019-01-28T07:35:05.384Z,61.80
2019-01-28T07:37:38.200Z,60.90
2019-01-28T07:40:11.170Z,60.90
2019-01-28T07:42:43.917Z,60.70
2019-01-28T07:45:31.839Z,61.50
2019-01-28T07:48:04.047Z,60.70
2019-01-28T07:50:36.249Z,60.50
2019-01-28T07:53:08.799Z,61.60
2019-01-28T07:55:40.778Z,61.80
2019-01-28T07:58:13.976Z,61.50
2019-01-28T08:00:46.775Z,61.50
2019-01-28T08:03:18.966Z,60.90
2019-01-28T08:05:51.987Z,61.10
2019-01-28T08:08:24.506Z,60.70
2019-01-28T08:10:57.347Z,60.80
2019-01-28T08:13:29.526Z,61.10
2019-01-28T08:16:02.490Z,60.90
2019-01-28T08:18:36.007Z,61.70
2019-01-28T08:21:09.207Z,62.00
2019-01-28T08:23:41.047Z,61.10
2019-01-28T08:26:13.730Z,61.50
2019-01-28T08:28:47.008Z,61.50
2019-01-28T08:31:19.227Z,60.70
2019-01-28T08:33:51.970Z,61.10
2019-01-28T08:36:24.687Z,61.30
2019-01-28T08:38:57.468Z,60.20
2019-01-28T08:41:29.488Z,60.20
2019-01-28T08:44:01.547Z,60.20
2019-01-28T08:46:34.527Z,60.80
2019-01-28T08:49:07.167Z,60.70
2019-01-28T08:51:39.508Z,60.90
2019-01-28T08:54:12.248Z,60.00
2019-01-28T08:56:44.269Z,60.80
2019-01-28T08:59:16.907Z,60.70
2019-01-28T09:01:49.427Z,60.40
2019-01-28T09:04:22.489Z,60.70
2019-01-28T09:06:54.567Z,59.90
2019-01-28T09:09:29.487Z,60.30
2019-01-28T09:12:01.687Z,60.90
2019-01-28T09:14:34.211Z,61.00
2019-01-28T09:17:06.906Z,62.00
2019-01-28T09:19:39.187Z,61.90
2019-01-28T09:22:12.108Z,60.90
2019-01-28T09:24:44.410Z,61.60
2019-01-28T09:27:16.986Z,61.10
2019-01-28T09:29:49.548Z,62.00
2019-01-28T09:32:23.046Z,60.90
2019-01-28T09:34:55.987Z,60.60
2019-01-28T09:37:29.527Z,59.90
2019-01-28T09:40:02.426Z,60.40
2019-01-28T09:42:34.532Z,59.30
2019-01-28T09:45:07.826Z,59.40
2019-01-28T09:47:41.687Z,60.20
2019-01-28T09:50:15.287Z,60.70
2019-01-28T09:52:48.148Z,59.70
2019-01-28T09:55:20.567Z,59.40
2019-01-28T09:57:53.290Z,60.10
2019-01-28T10:00:37.869Z,60.20
2019-01-28T10:03:10.111Z,59.70
2019-01-28T10:05:42.289Z,60.10
2019-01-28T10:08:15.113Z,59.70
2019-01-28T10:10:48.688Z,59.10
2019-01-28T10:13:20.857Z,59.70
2019-01-28T10:15:53.628Z,60.00
2019-01-28T10:18:27.208Z,60.00
2019-01-28T10:21:00.030Z,59.10
2019-01-28T10:23:31.868Z,58.20
2019-01-28T10:26:05.448Z,58.50
2019-01-28T10:28:37.412Z,58.60
2019-01-28T10:31:10.130Z,57.80
2019-01-28T10:33:42.189Z,56.70
2019-01-28T10:36:15.008Z,57.30
2019-01-28T10:38:47.652Z,56.80
2019-01-28T10:41:20.414Z,56.40
2019-01-28T10:43:53.553Z,58.20
2019-01-28T10:46:25.855Z,57.00
2019-01-28T10:48:58.655Z,55.50
2019-01-28T10:51:31.714Z,55.80
2019-01-28T10:54:03.595Z,56.00
2019-01-28T10:56:36.146Z,56.00
2019-01-28T10:59:08.971Z,56.60
2019-01-28T11:01:41.855Z,55.30
2019-01-28T11:04:15.333Z,55.40
2019-01-28T11:06:47.975Z,55.10
2019-01-28T11:09:21.352Z,55.40
2019-01-28T11:11:53.761Z,55.60
2019-01-28T11:14:26.501Z,55.20
2019-01-28T11:16:58.892Z,55.60
2019-01-28T11:19:32.214Z,55.80
2019-01-28T11:22:04.864Z,55.40
2019-01-28T11:24:37.312Z,52.90
2019-01-28T11:27:09.876Z,53.00
2019-01-28T11:29:42.577Z,53.50
2019-01-28T11:32:17.027Z,53.50
2019-01-28T11:34:49.454Z,53.50
2019-01-28T11:37:21.978Z,53.20
2019-01-28T11:39:54.281Z,54.70
2019-01-28T11:42:27.399Z,53.80
2019-01-28T11:45:00.571Z,53.60
2019-01-28T11:47:33.630Z,53.10
2019-01-28T11:50:06.488Z,53.50
2019-01-28T11:52:39.717Z,53.50
2019-01-28T11:55:11.944Z,52.30
2019-01-28T11:57:46.616Z,52.30
2019-01-28T12:00:23.958Z,51.10
2019-01-28T12:02:56.300Z,51.50
2019-01-28T12:05:29.541Z,50.60
2019-01-28T12:08:02.120Z,50.80
2019-01-28T12:10:34.659Z,51.10
2019-01-28T12:13:07.560Z,51.10
2019-01-28T12:15:41.415Z,50.00
2019-01-28T12:18:14.955Z,50.40
2019-01-28T12:20:53.432Z,49.40
2019-01-28T12:23:22.636Z,49.60
2019-01-28T12:25:55.796Z,48.60
2019-01-28T12:28:28.596Z,48.90
2019-01-28T12:31:00.794Z,49.20
2019-01-28T12:33:34.056Z,50.00
2019-01-28T12:36:08.100Z,50.10
2019-01-28T12:38:40.435Z,49.70
2019-01-28T12:41:17.365Z,49.20
2019-01-28T12:43:46.872Z,49.70
2019-01-28T12:46:19.311Z,49.40
2019-01-28T12:48:51.772Z,48.90
2019-01-28T12:57:28.478Z,49.70
2019-01-28T13:00:01.088Z,50.60
2019-01-28T13:02:33.885Z,51.80
2019-01-28T13:05:06.323Z,51.90
2019-01-28T13:07:39.102Z,51.00
2019-01-28T13:10:13.782Z,51.30
2019-01-28T13:12:46.301Z,51.40
2019-01-28T13:15:24.142Z,51.50
2019-01-28T13:17:57.569Z,51.60
2019-01-28T13:20:30.628Z,51.60
2019-01-28T13:23:03.037Z,52.10
2019-01-28T13:25:35.922Z,52.10
2019-01-28T13:28:08.420Z,52.80
2019-01-28T13:30:41.461Z,53.00
2019-01-28T13:33:16.348Z,53.40
2019-01-28T13:35:48.961Z,53.40
2019-01-28T13:38:20.993Z,53.50
2019-01-28T13:40:53.600Z,53.60
2019-01-28T13:43:26.401Z,53.70
2019-01-28T13:45:59.222Z,53.90
2019-01-28T13:48:32.020Z,53.90
2019-01-28T13:51:04.109Z,54.10
2019-01-28T13:53:36.009Z,53.80
2019-01-28T13:56:08.382Z,54.30
2019-01-28T13:58:41.347Z,52.90
2019-01-28T14:01:14.289Z,53.50
2019-01-28T14:03:47.301Z,52.60
2019-01-28T14:06:19.260Z,52.40
2019-01-28T14:08:52.160Z,52.60
2019-01-28T14:11:24.309Z,52.80
2019-01-28T14:13:56.584Z,53.00
2019-01-28T14:16:29.376Z,51.10
2019-01-28T14:19:01.596Z,51.10
2019-01-28T14:21:34.376Z,51.40
2019-01-28T14:24:06.915Z,51.50
2019-01-28T14:26:39.718Z,51.70
2019-01-28T14:29:12.877Z,52.10
2019-01-28T14:31:45.459Z,51.90
2019-01-28T14:34:18.705Z,51.80
2019-01-28T14:36:51.545Z,51.90
2019-01-28T14:39:24.716Z,51.60
2019-01-28T14:41:55.963Z,51.40
2019-01-28T14:44:28.461Z,51.50
2019-01-28T14:47:01.085Z,51.30
2019-01-28T14:49:33.732Z,51.20
2019-01-28T14:52:06.251Z,50.30
2019-01-28T14:54:38.461Z,50.40
2019-01-28T14:57:11.580Z,51.00
2019-01-28T14:59:43.981Z,51.20
2019-01-28T15:02:16.012Z,51.70
2019-01-28T15:04:48.391Z,51.40
2019-01-28T15:07:21.190Z,51.80
2019-01-28T15:09:53.251Z,52.10
2019-01-28T15:12:26.209Z,51.70
2019-01-28T15:14:59.091Z,51.20
2019-01-28T15:17:32.211Z,51.10
2019-01-28T15:20:05.115Z,51.10
2019-01-28T15:22:37.030Z,50.70
2019-01-28T15:25:10.610Z,50.90
2019-01-28T15:27:44.150Z,51.30
2019-01-28T15:30:24.670Z,51.00
2019-01-28T15:32:57.014Z,51.10
2019-01-28T15:35:30.431Z,51.20
2019-01-28T15:38:03.327Z,50.60
2019-01-28T15:40:36.771Z,50.60
2019-01-28T15:43:09.570Z,50.50
2019-01-28T15:45:45.111Z,50.40
2019-01-28T15:48:17.732Z,50.70
2019-01-28T15:50:50.851Z,50.50
2019-01-28T15:53:23.170Z,51.00
2019-01-28T15:55:55.592Z,50.90
2019-01-28T15:58:28.363Z,50.70
2019-01-28T16:01:00.649Z,50.90
2019-01-28T16:03:33.570Z,52.30
2019-01-28T16:06:06.132Z,51.60
2019-01-28T16:08:38.911Z,51.20
2019-01-28T16:11:11.130Z,51.70
2019-01-28T16:13:44.472Z,51.60
2019-01-28T16:16:17.293Z,51.90
2019-01-28T16:18:49.967Z,51.90
2019-01-28T16:21:21.771Z,52.20
2019-01-28T16:23:54.596Z,52.60
2019-01-28T16:26:26.938Z,52.80
2019-01-28T16:28:59.651Z,53.20
2019-01-28T16:31:32.830Z,53.40
2019-01-28T16:34:05.451Z,53.60
2019-01-28T16:36:38.251Z,53.60
2019-01-28T16:39:11.583Z,53.40
2019-01-28T16:41:44.330Z,53.60
2019-01-28T16:44:16.794Z,53.80
2019-01-28T16:46:49.670Z,53.80
2019-01-28T16:49:22.371Z,53.60
2019-01-28T16:51:55.510Z,53.80
2019-01-28T16:54:29.001Z,53.70
2019-01-28T16:57:01.705Z,53.80
2019-01-28T16:59:34.540Z,53.70
2019-01-28T17:02:06.901Z,53.90
2019-01-28T17:04:39.981Z,54.20
2019-01-28T17:07:12.840Z,53.90
2019-01-28T17:09:45.185Z,54.00
2019-01-28T17:12:17.886Z,54.00
2019-01-28T17:14:50.827Z,54.40
2019-01-28T17:17:23.645Z,54.40
2019-01-28T17:19:56.265Z,54.30
2019-01-28T17:22:28.486Z,54.60
2019-01-28T17:25:02.046Z,54.60
2019-01-28T17:27:35.225Z,54.50
2019-01-28T17:30:10.128Z,54.60
2019-01-28T17:32:43.305Z,54.70
2019-01-28T17:35:17.068Z,55.40
2019-01-28T17:37:50.406Z,55.50
2019-01-28T17:40:22.933Z,55.20
2019-01-28T17:42:55.009Z,55.10
2019-01-28T17:45:28.129Z,55.10
2019-01-28T17:48:01.469Z,55.30
2019-01-28T17:50:43.041Z,55.40
2019-01-28T17:53:09.729Z,55.60
2019-01-28T17:55:42.488Z,55.90
2019-01-28T17:58:14.348Z,56.00
2019-01-28T18:00:50.768Z,56.20
2019-01-28T18:03:23.627Z,56.30
2019-01-28T18:05:56.666Z,56.30
2019-01-28T18:08:28.778Z,56.60
2019-01-28T18:11:01.831Z,56.80
2019-01-28T18:13:34.907Z,57.00
2019-01-28T18:16:07.568Z,56.90
2019-01-28T18:18:39.651Z,57.20
2019-01-28T18:21:12.148Z,57.30
2019-01-28T18:23:55.708Z,57.50
2019-01-28T18:26:27.807Z,57.80
2019-01-28T18:29:01.608Z,58.40
2019-01-28T18:31:34.486Z,59.00
2019-01-28T18:34:06.687Z,59.50
2019-01-28T18:36:39.129Z,59.90
2019-01-28T18:39:13.687Z,60.30
2019-01-28T18:41:46.529Z,60.50
2019-01-28T18:44:19.487Z,60.90
2019-01-28T18:46:52.268Z,61.50
2019-01-28T18:49:24.807Z,61.60
2019-01-28T18:51:58.047Z,61.90
2019-01-28T18:54:30.746Z,61.90
2019-01-28T18:57:03.847Z,62.30
2019-01-28T18:59:36.147Z,62.40
2019-01-28T19:02:08.307Z,62.50
2019-01-28T19:04:40.566Z,62.70
2019-01-28T19:07:28.727Z,62.80
2019-01-28T19:10:20.135Z,62.80
2019-01-28T19:13:23.067Z,62.80
2019-01-28T19:16:14.226Z,62.80
2019-01-28T19:18:54.287Z,63.00
2019-01-28T19:21:33.288Z,62.80
2019-01-28T19:24:06.368Z,63.00
2019-01-28T19:26:39.805Z,63.40
2019-01-28T19:29:13.087Z,63.20
2019-01-28T19:31:45.108Z,63.30
2019-01-28T19:34:18.147Z,63.60
2019-01-28T19:36:51.330Z,63.60
2019-01-28T19:39:24.168Z,63.70
2019-01-28T19:41:55.947Z,64.30
2019-01-28T19:44:28.608Z,64.40
2019-01-28T19:47:01.645Z,65.00
2019-01-28T19:49:34.987Z,65.40
2019-01-28T19:52:07.467Z,65.80
2019-01-28T19:54:39.769Z,66.50
2019-01-28T19:57:12.567Z,67.50
2019-01-28T19:59:45.767Z,67.90
2019-01-28T20:02:17.887Z,68.30
2019-01-28T20:04:50.551Z,68.70
2019-01-28T20:07:23.292Z,69.30
2019-01-28T20:09:56.348Z,69.70
2019-01-28T20:12:28.947Z,70.00
2019-01-28T20:15:02.248Z,70.00
2019-01-28T20:17:35.407Z,69.70
2019-01-28T20:20:09.207Z,69.80
2019-01-28T20:22:42.072Z,69.90
2019-01-28T20:25:15.179Z,69.80
2019-01-28T20:27:47.497Z,69.80
2019-01-28T20:30:25.007Z,69.70
2019-01-28T20:32:58.449Z,70.00
2019-01-28T20:35:31.347Z,70.00
2019-01-28T20:38:04.666Z,70.10
2019-01-28T20:40:37.288Z,70.00
2019-01-28T20:43:08.888Z,69.70
2019-01-28T20:45:45.095Z,70.20
2019-01-28T20:48:16.624Z,70.30
2019-01-28T20:50:49.373Z,70.60
2019-01-28T20:53:22.412Z,70.70
2019-01-28T20:55:55.427Z,70.60
2019-01-28T20:58:28.308Z,70.80
2019-01-28T21:01:01.219Z,70.60
2019-01-28T21:03:33.411Z,70.40
2019-01-28T21:06:06.486Z,70.70
2019-01-28T21:08:39.062Z,71.00
2019-01-28T21:11:11.767Z,71.30
2019-01-28T21:13:44.069Z,71.10
2019-01-28T21:16:16.824Z,71.40
2019-01-28T21:18:49.487Z,71.10
2019-01-28T21:21:21.570Z,71.00
2019-01-28T21:23:53.888Z,71.00
2019-01-28T21:26:26.484Z,71.20
2019-01-28T21:28:59.043Z,70.80
2019-01-28T21:31:31.284Z,70.70
2019-01-28T21:34:02.922Z,70.90
2019-01-28T21:36:42.425Z,70.90
2019-01-28T21:39:17.026Z,70.50
2019-01-28T21:41:49.804Z,71.00
2019-01-28T21:44:22.982Z,70.60
2019-01-28T21:46:56.324Z,71.00
2019-01-28T21:49:29.146Z,71.30
2019-01-28T21:52:01.765Z,71.70
2019-01-28T21:54:34.945Z,72.00
2019-01-28T21:57:08.022Z,72.00
2019-01-28T21:59:40.745Z,72.20
2019-01-28T22:02:13.084Z,72.60
2019-01-28T22:04:45.724Z,72.30
2019-01-28T22:07:18.522Z,72.90
2019-01-28T22:09:52.003Z,73.30
2019-01-28T22:12:25.407Z,73.10
2019-01-28T22:14:57.663Z,72.80
2019-01-28T22:17:29.803Z,73.20
2019-01-28T22:20:02.364Z,73.20
2019-01-28T22:22:34.303Z,73.60
2019-01-28T22:25:08.806Z,73.40
2019-01-28T22:27:41.383Z,73.60
2019-01-28T22:30:17.063Z,73.50
2019-01-28T22:32:49.124Z,73.60
2019-01-28T22:35:22.004Z,73.50
2019-01-28T22:37:54.844Z,73.40
2019-01-28T22:40:27.485Z,74.40
2019-01-28T22:42:59.645Z,74.30
2019-01-28T22:45:32.184Z,74.50
2019-01-28T22:48:05.602Z,75.10
2019-01-28T22:50:38.904Z,75.30
2019-01-28T22:53:10.722Z,75.40
2019-01-28T22:55:44.284Z,75.60
2019-01-28T22:58:16.945Z,76.00
2019-01-28T23:00:59.744Z,76.10
2019-01-28T23:03:32.764Z,76.30
2019-01-28T23:06:05.923Z,76.30
2019-01-28T23:08:39.203Z,76.70
2019-01-28T23:11:12.622Z,76.70
2019-01-28T23:13:44.926Z,76.60
2019-01-28T23:16:18.044Z,76.40
2019-01-28T23:18:50.523Z,76.30
2019-01-28T23:21:23.810Z,76.20
2019-01-28T23:23:57.004Z,76.70
2019-01-28T23:26:29.143Z,76.30
2019-01-28T23:29:02.006Z,76.80
2019-01-28T23:31:34.744Z,77.10
2019-01-28T23:34:07.866Z,77.20
2019-01-28T23:36:40.449Z,77.60
2019-01-28T23:39:12.288Z,77.60
2019-01-28T23:41:44.827Z,77.80
2019-01-28T23:44:17.324Z,78.00
2019-01-28T23:46:50.485Z,78.10
2019-01-28T23:49:23.663Z,78.20
2019-01-28T23:51:56.923Z,78.20
2019-01-28T23:54:30.463Z,78.20
2019-01-28T23:57:04.163Z,77.90
2019-01-28T23:59:37.465Z,78.30
